KMMK

Details ICAO KMMK
Name Meriden Markham Municipal
Region United States
Timezone America/New_York (UTC-4.0)
Plans Departing 10
Arriving 6
Stats Elevation 103 ft / 31 m (AMSL)
Location 41.508715° -72.829478°
Runways 1
Magnetic Variation 13.643° W
Sunrise 2018-05-22 09:27:29 UTC / 2018-05-22 05:27:29 Local
Sunset 2018-05-23 00:11:23 UTC / 2018-05-22 20:11:23 Local
Advertisement - Login to hide

Runways

ID Width Length Bearing (true) Bearing (mag) Surface Threshold Offset Overrun Length
18 75 ft / 23 m 3,103 ft / 946 m 161.74° 175.38° Asphalt 0 ft / 0 m 0 ft / 0 m
36 75 ft / 23 m 3,103 ft / 946 m 341.74° 355.38° Asphalt 0 ft / 0 m 0 ft / 0 m

Map

Weather


0- 5 10 15 20 25 30 35+ Temperature / ° C

Clouds and Precipitation
Forecast for 2018-05-22 12:00 UTC. Updated an hour ago

Ground ~20,000 ft ~40,000 ft Winds

METAR

KMMK 221153Z AUTO 00000KT 10SM BKN120 14/12 A3018 RMK AO2 SLP219 T01440122 10144 20100 53005

TAF

Not found

Frequencies

Recorded 134.92 MHz ASOS
Clearance 120.65 MHz CLNC DEL
Unicom 123.05 MHz CTAF
Departure 127.80 MHz APP/DEP
Warning: Do not use this data for real-world aviation or navigation. No guarantee of current accuracy is given.